Time;durP1;ratioP1;P1;durP2;ratioP2;P2;SDS_P1;SDS_P2;PMS_P1;PMS_P2;Temp;Humidity;BMP_temperature;BMP_pressure;BME280_temperature;BME280_humidity;BME280_pressure;Samples;Min_cycle;Max_cycle;Signal;HPM_P1;HPM_P2
2023/11/23 00:02:22;;;;;;;16.80;7.63;;;;;;;;;;6212882;23;20182;-89
2023/11/23 00:05:28;;;;;;;18.87;8.23;;;;;;;;;;6212388;23;20497;-91
2023/11/23 00:08:34;;;;;;;15.60;7.43;;;;;;;;;;6214666;23;20171;-89
2023/11/23 00:11:39;;;;;;;17.77;7.13;;;;;;;;;;6213387;22;20238;-89
2023/11/23 00:14:47;;;;;;;17.70;7.67;;;;;;;;;;6213365;22;20166;-91
2023/11/23 00:17:53;;;;;;;17.43;7.73;;;;;;;;;;6211890;23;20189;-88
2023/11/23 00:20:58;;;;;;;17.27;7.53;;;;;;;;;;6211969;23;20167;-91
2023/11/23 00:24:04;;;;;;;16.73;7.67;;;;;;;;;;6212687;23;20171;-91
2023/11/23 00:27:10;;;;;;;17.53;7.60;;;;;;;;;;6213151;23;20174;-89
2023/11/23 00:30:17;;;;;;;16.40;7.90;;;;;;;;;;6212587;23;20187;-91
2023/11/23 00:33:23;;;;;;;16.73;7.87;;;;;;;;;;6215292;23;20170;-91
2023/11/23 00:36:30;;;;;;;17.77;7.23;;;;;;;;;;6215337;22;20163;-89
2023/11/23 00:39:35;;;;;;;16.03;7.57;;;;;;;;;;6214085;23;20246;-89
2023/11/23 00:42:40;;;;;;;19.77;8.43;;;;;;;;;;6215189;23;20622;-89
2023/11/23 00:45:47;;;;;;;16.37;7.53;;;;;;;;;;6215776;23;20613;-90
2023/11/23 00:48:54;;;;;;;14.13;7.33;;;;;;;;;;6214431;23;20167;-91
2023/11/23 00:52:00;;;;;;;16.03;7.10;;;;;;;;;;6216049;23;20269;-90
2023/11/23 00:55:06;;;;;;;18.87;7.80;;;;;;;;;;6215615;23;20163;-90
2023/11/23 00:58:12;;;;;;;17.23;8.37;;;;;;;;;;6215557;22;20167;-89
2023/11/23 01:01:19;;;;;;;16.57;7.53;;;;;;;;;;6215479;23;20175;-89
2023/11/23 01:04:24;;;;;;;17.00;7.50;;;;;;;;;;6215938;23;20191;-88
2023/11/23 01:07:30;;;;;;;15.57;7.33;;;;;;;;;;6216813;23;20234;-91
2023/11/23 01:10:35;;;;;;;17.27;7.93;;;;;;;;;;6216538;23;20245;-88
2023/11/23 01:13:40;;;;;;;14.07;7.07;;;;;;;;;;6210507;22;20178;-89
2023/11/23 01:16:48;;;;;;;16.00;7.40;;;;;;;;;;6211475;22;20147;-89
2023/11/23 01:19:53;;;;;;;15.63;7.30;;;;;;;;;;6211116;23;20226;-93
2023/11/23 01:22:58;;;;;;;15.30;7.63;;;;;;;;;;6211556;23;20167;-88
2023/11/23 01:26:03;;;;;;;17.13;7.67;;;;;;;;;;6211859;23;20171;-91
2023/11/23 01:29:08;;;;;;;17.80;7.73;;;;;;;;;;6211804;22;20171;-91
2023/11/23 01:32:15;;;;;;;16.30;7.80;;;;;;;;;;6212205;22;20199;-91
2023/11/23 01:35:20;;;;;;;18.07;8.73;;;;;;;;;;6214811;23;20154;-91
2023/11/23 01:38:26;;;;;;;16.17;7.90;;;;;;;;;;6212508;23;20190;-91
2023/11/23 01:41:31;;;;;;;16.87;7.73;;;;;;;;;;6213056;23;20272;-92
2023/11/23 01:44:37;;;;;;;19.20;8.57;;;;;;;;;;6210220;23;20167;-90
2023/11/23 01:47:45;;;;;;;18.00;8.63;;;;;;;;;;6209460;22;20167;-87
2023/11/23 01:50:50;;;;;;;18.13;8.43;;;;;;;;;;6210392;23;20218;-91
2023/11/23 01:53:55;;;;;;;19.77;8.97;;;;;;;;;;6209720;23;20174;-90
2023/11/23 01:57:01;;;;;;;22.30;9.13;;;;;;;;;;6210136;23;20171;-91
2023/11/23 02:00:07;;;;;;;22.70;9.57;;;;;;;;;;6208023;23;20162;-87
2023/11/23 02:03:20;;;;;;;19.03;9.50;;;;;;;;;;6209453;22;20198;-85
2023/11/23 02:06:25;;;;;;;18.17;8.30;;;;;;;;;;6210634;22;20163;-87
2023/11/23 02:09:31;;;;;;;19.17;8.63;;;;;;;;;;6208676;23;20175;-89
2023/11/23 02:12:36;;;;;;;20.53;9.60;;;;;;;;;;6207359;23;20247;-92
2023/11/23 02:15:41;;;;;;;19.30;9.13;;;;;;;;;;6207465;23;20629;-86
2023/11/23 02:18:48;;;;;;;19.57;9.17;;;;;;;;;;6207472;23;20215;-89
2023/11/23 02:21:52;;;;;;;21.27;9.07;;;;;;;;;;6210128;23;20166;-91
2023/11/23 02:24:59;;;;;;;22.23;9.70;;;;;;;;;;6210701;23;20770;-91
2023/11/23 02:28:06;;;;;;;18.83;8.40;;;;;;;;;;6210521;23;20175;-91
2023/11/23 02:31:11;;;;;;;18.63;8.67;;;;;;;;;;6208582;23;20186;-90
2023/11/23 02:34:16;;;;;;;18.53;9.27;;;;;;;;;;6208128;23;20163;-89
2023/11/23 02:37:21;;;;;;;18.27;9.50;;;;;;;;;;6208830;23;20178;-90
2023/11/23 02:40:27;;;;;;;20.17;10.07;;;;;;;;;;6208866;23;20171;-90
2023/11/23 02:43:32;;;;;;;22.73;9.57;;;;;;;;;;6208439;23;20214;-90
2023/11/23 02:46:37;;;;;;;22.57;9.13;;;;;;;;;;6207552;23;20170;-87
2023/11/23 02:49:42;;;;;;;24.73;8.83;;;;;;;;;;6207742;23;20174;-88
2023/11/23 02:52:52;;;;;;;19.03;8.10;;;;;;;;;;6207175;23;20269;-92
2023/11/23 02:55:58;;;;;;;21.10;8.77;;;;;;;;;;6209121;23;20665;-91
2023/11/23 02:59:04;;;;;;;20.27;8.70;;;;;;;;;;6209313;23;20681;-90
2023/11/23 03:02:09;;;;;;;19.07;8.93;;;;;;;;;;6209561;22;20158;-91
2023/11/23 03:05:14;;;;;;;20.80;9.80;;;;;;;;;;6210152;22;20215;-89
2023/11/23 03:08:21;;;;;;;21.60;8.97;;;;;;;;;;6208828;22;20243;-89
2023/11/23 03:11:27;;;;;;;22.10;10.50;;;;;;;;;;6210158;23;20206;-89
2023/11/23 03:14:34;;;;;;;22.83;9.27;;;;;;;;;;6209661;23;20551;-91
2023/11/23 03:17:40;;;;;;;20.83;9.67;;;;;;;;;;6210148;23;20496;-89
2023/11/23 03:20:45;;;;;;;21.60;10.00;;;;;;;;;;6210663;23;20203;-89
2023/11/23 03:23:51;;;;;;;20.33;9.53;;;;;;;;;;6209610;22;20242;-85
2023/11/23 03:26:58;;;;;;;22.17;9.83;;;;;;;;;;6209053;23;20669;-88
2023/11/23 03:30:05;;;;;;;24.77;10.77;;;;;;;;;;6208507;23;20171;-88
2023/11/23 03:33:11;;;;;;;21.47;10.03;;;;;;;;;;6207883;23;20200;-89
2023/11/23 03:36:16;;;;;;;25.03;10.43;;;;;;;;;;6209038;22;20164;-89
2023/11/23 03:39:22;;;;;;;20.97;9.93;;;;;;;;;;6207579;23;20219;-88
2023/11/23 03:42:28;;;;;;;24.50;10.13;;;;;;;;;;6208170;23;20219;-89
2023/11/23 03:45:33;;;;;;;23.23;9.97;;;;;;;;;;6208828;23;20200;-89
2023/11/23 03:48:38;;;;;;;22.50;10.03;;;;;;;;;;6206811;23;20214;-90
2023/11/23 03:51:44;;;;;;;23.63;11.10;;;;;;;;;;6208696;22;20167;-90
2023/11/23 03:54:53;;;;;;;21.00;10.27;;;;;;;;;;6207785;22;20167;-90
2023/11/23 03:57:59;;;;;;;24.97;9.93;;;;;;;;;;6208557;23;20179;-91
2023/11/23 04:01:05;;;;;;;22.70;9.57;;;;;;;;;;6207435;23;20179;-89
2023/11/23 04:04:11;;;;;;;19.73;9.47;;;;;;;;;;6209253;23;20175;-89
2023/11/23 04:07:16;;;;;;;24.17;9.80;;;;;;;;;;6210950;22;20167;-89
2023/11/23 04:10:23;;;;;;;23.30;9.73;;;;;;;;;;6209594;22;20220;-91
2023/11/23 04:13:30;;;;;;;28.43;9.23;;;;;;;;;;6208542;23;20190;-90
2023/11/23 04:16:36;;;;;;;20.20;10.07;;;;;;;;;;6207743;23;20163;-91
2023/11/23 04:19:41;;;;;;;22.50;10.30;;;;;;;;;;6207271;23;20166;-89
2023/11/23 04:22:46;;;;;;;23.83;9.90;;;;;;;;;;6207637;22;20171;-92
2023/11/23 04:25:53;;;;;;;25.33;10.60;;;;;;;;;;6210000;22;20210;-92
2023/11/23 04:28:59;;;;;;;25.97;11.07;;;;;;;;;;6208027;23;20166;-88
2023/11/23 04:32:06;;;;;;;23.10;10.43;;;;;;;;;;6208602;23;20166;-92
2023/11/23 04:35:11;;;;;;;22.13;10.50;;;;;;;;;;6208011;23;20178;-88
2023/11/23 04:38:17;;;;;;;22.93;10.47;;;;;;;;;;6209186;23;20195;-87
2023/11/23 04:41:24;;;;;;;21.17;10.13;;;;;;;;;;6208301;22;20191;-89
2023/11/23 04:44:31;;;;;;;21.73;10.20;;;;;;;;;;6208038;23;20175;-85
2023/11/23 04:47:36;;;;;;;26.93;11.13;;;;;;;;;;6207963;23;20238;-91
2023/11/23 04:50:41;;;;;;;24.23;10.60;;;;;;;;;;6207529;23;20501;-90
2023/11/23 04:53:46;;;;;;;24.97;11.40;;;;;;;;;;6209670;23;20274;-90
2023/11/23 04:56:53;;;;;;;20.07;9.37;;;;;;;;;;6208512;23;20684;-90
2023/11/23 05:00:00;;;;;;;24.87;10.63;;;;;;;;;;6208051;23;20167;-89
2023/11/23 05:03:05;;;;;;;28.47;11.70;;;;;;;;;;6207263;23;20171;-90
2023/11/23 05:06:11;;;;;;;22.20;10.63;;;;;;;;;;6207142;23;20163;-90
2023/11/23 05:09:17;;;;;;;30.60;11.93;;;;;;;;;;6209827;22;20210;-91
2023/11/23 05:12:25;;;;;;;22.27;10.27;;;;;;;;;;6208656;23;20238;-90
2023/11/23 05:15:31;;;;;;;27.87;10.80;;;;;;;;;;6207839;23;20250;-90
2023/11/23 05:18:37;;;;;;;27.63;10.87;;;;;;;;;;6210224;23;20191;-92
2023/11/23 05:21:44;;;;;;;22.77;10.13;;;;;;;;;;6209951;22;20187;-89
2023/11/23 05:24:49;;;;;;;19.70;9.20;;;;;;;;;;6209690;22;20171;-89
2023/11/23 05:27:54;;;;;;;27.20;10.47;;;;;;;;;;6210575;23;20171;-93
2023/11/23 05:31:02;;;;;;;24.37;9.73;;;;;;;;;;6210341;23;20167;-88
2023/11/23 05:34:07;;;;;;;24.77;10.47;;;;;;;;;;6211732;23;20222;-89
2023/11/23 05:37:12;;;;;;;25.17;10.43;;;;;;;;;;6209862;23;20191;-90
2023/11/23 05:40:18;;;;;;;27.23;11.03;;;;;;;;;;6210785;23;20164;-88
2023/11/23 05:43:24;;;;;;;27.77;11.00;;;;;;;;;;6210677;23;20175;-88
2023/11/23 05:46:30;;;;;;;25.63;11.27;;;;;;;;;;6210620;23;20223;-89
2023/11/23 05:49:35;;;;;;;27.23;10.40;;;;;;;;;;6213204;23;20179;-87
2023/11/23 05:52:41;;;;;;;23.73;8.60;;;;;;;;;;6210263;23;20191;-88
2023/11/23 05:55:46;;;;;;;21.47;9.10;;;;;;;;;;6212461;22;20171;-90
2023/11/23 05:58:52;;;;;;;23.87;9.43;;;;;;;;;;6214629;23;20617;-92
2023/11/23 06:02:02;;;;;;;20.20;8.57;;;;;;;;;;6212726;23;20202;-90
2023/11/23 06:05:08;;;;;;;25.27;9.93;;;;;;;;;;6210920;23;20167;-88
2023/11/23 06:08:13;;;;;;;24.70;9.03;;;;;;;;;;6210809;23;20179;-87
2023/11/23 06:11:19;;;;;;;26.47;10.50;;;;;;;;;;6211999;23;20202;-92
2023/11/23 06:14:25;;;;;;;22.50;10.00;;;;;;;;;;6212619;23;20191;-91
2023/11/23 06:17:32;;;;;;;21.57;9.20;;;;;;;;;;6216558;23;20167;-90
2023/11/23 06:20:38;;;;;;;23.57;9.93;;;;;;;;;;6213593;23;20168;-91
2023/11/23 06:23:43;;;;;;;23.83;8.07;;;;;;;;;;6213248;23;20233;-88
2023/11/23 06:26:49;;;;;;;26.53;10.43;;;;;;;;;;6213888;22;20218;-89
2023/11/23 06:29:55;;;;;;;23.37;8.57;;;;;;;;;;6214562;23;20170;-89
2023/11/23 06:33:02;;;;;;;26.90;10.47;;;;;;;;;;6213546;23;20195;-89
2023/11/23 06:36:07;;;;;;;23.90;9.67;;;;;;;;;;6209469;23;20271;-89
2023/11/23 06:39:13;;;;;;;21.43;8.07;;;;;;;;;;6214247;22;20159;-88
2023/11/23 06:42:21;;;;;;;21.27;9.17;;;;;;;;;;6211042;22;20286;-90
2023/11/23 06:45:26;;;;;;;23.13;9.43;;;;;;;;;;6213857;22;20183;-87
2023/11/23 06:48:34;;;;;;;22.30;9.77;;;;;;;;;;6212043;23;20166;-91
2023/11/23 06:51:40;;;;;;;23.00;9.57;;;;;;;;;;6209320;23;20167;-89
2023/11/23 06:54:46;;;;;;;25.83;11.03;;;;;;;;;;6211293;22;20190;-87
2023/11/23 06:57:51;;;;;;;21.93;10.13;;;;;;;;;;6210726;22;20171;-92
2023/11/23 07:00:56;;;;;;;20.97;9.13;;;;;;;;;;6229354;22;20191;-91
2023/11/23 07:04:04;;;;;;;25.20;10.63;;;;;;;;;;6215519;23;20168;-89
2023/11/23 07:07:09;;;;;;;19.67;8.77;;;;;;;;;;6211411;23;20514;-90
2023/11/23 07:10:15;;;;;;;21.23;10.50;;;;;;;;;;6209890;22;20175;-90
2023/11/23 07:13:20;;;;;;;26.73;11.50;;;;;;;;;;6208932;22;20322;-88
2023/11/23 07:16:25;;;;;;;20.50;8.73;;;;;;;;;;6210128;22;20318;-91
2023/11/23 07:19:32;;;;;;;26.20;10.23;;;;;;;;;;6209729;23;20670;-89
2023/11/23 07:22:37;;;;;;;26.60;10.57;;;;;;;;;;6208693;23;20163;-90
2023/11/23 07:25:44;;;;;;;24.50;9.73;;;;;;;;;;6208546;23;20259;-91
2023/11/23 07:28:49;;;;;;;23.57;10.17;;;;;;;;;;6212376;22;20191;-91
2023/11/23 07:31:54;;;;;;;24.77;10.47;;;;;;;;;;6212033;22;20190;-89
2023/11/23 07:35:01;;;;;;;25.77;9.80;;;;;;;;;;6212760;23;20199;-91
2023/11/23 07:38:08;;;;;;;26.93;11.53;;;;;;;;;;6210593;22;20201;-89
2023/11/23 07:41:14;;;;;;;23.83;10.37;;;;;;;;;;6212197;23;20715;-91
2023/11/23 07:44:20;;;;;;;27.13;10.80;;;;;;;;;;6207633;23;20146;-91
2023/11/23 07:47:25;;;;;;;22.70;9.40;;;;;;;;;;6208573;23;20206;-89
2023/11/23 07:50:32;;;;;;;22.13;10.03;;;;;;;;;;6207733;23;20215;-93
2023/11/23 07:53:37;;;;;;;26.60;12.03;;;;;;;;;;6208108;23;20174;-91
2023/11/23 07:56:43;;;;;;;29.07;10.80;;;;;;;;;;6208938;23;20219;-91
2023/11/23 07:59:49;;;;;;;24.73;10.80;;;;;;;;;;6209720;22;20151;-91
2023/11/23 08:02:56;;;;;;;22.97;9.83;;;;;;;;;;6209764;23;20175;-90
2023/11/23 08:06:03;;;;;;;21.83;10.03;;;;;;;;;;6210857;23;20174;-90
2023/11/23 08:09:14;;;;;;;25.30;10.33;;;;;;;;;;6210477;22;20210;-90
2023/11/23 08:12:19;;;;;;;28.53;10.87;;;;;;;;;;6206863;22;20199;-89
2023/11/23 08:15:24;;;;;;;26.83;11.53;;;;;;;;;;6208289;23;20163;-91
2023/11/23 08:18:29;;;;;;;27.90;11.90;;;;;;;;;;6207847;23;20543;-90
2023/11/23 08:21:37;;;;;;;25.40;10.40;;;;;;;;;;6206776;22;20163;-89
2023/11/23 08:24:42;;;;;;;25.70;11.23;;;;;;;;;;6209692;23;20291;-90
2023/11/23 08:27:47;;;;;;;23.27;9.23;;;;;;;;;;6208953;23;20170;-90
2023/11/23 08:30:52;;;;;;;22.33;9.73;;;;;;;;;;6210408;22;20162;-91
2023/11/23 08:33:57;;;;;;;26.33;10.90;;;;;;;;;;6211233;23;20228;-92
2023/11/23 08:37:04;;;;;;;24.90;10.00;;;;;;;;;;6213089;23;20522;-91
2023/11/23 08:40:09;;;;;;;23.03;9.97;;;;;;;;;;6211753;23;20179;-86
2023/11/23 08:43:15;;;;;;;24.30;11.00;;;;;;;;;;6209779;23;20167;-92
2023/11/23 08:46:20;;;;;;;26.77;11.90;;;;;;;;;;6212264;22;20167;-90
2023/11/23 08:49:26;;;;;;;25.27;11.30;;;;;;;;;;6210610;22;20166;-87
2023/11/23 08:52:33;;;;;;;26.33;10.50;;;;;;;;;;6210426;22;20211;-89
2023/11/23 08:55:38;;;;;;;29.43;11.47;;;;;;;;;;6211100;23;20715;-91
2023/11/23 08:58:44;;;;;;;26.00;11.03;;;;;;;;;;6211290;23;20182;-92
2023/11/23 09:01:50;;;;;;;22.30;11.07;;;;;;;;;;6214130;23;20171;-87
2023/11/23 09:04:55;;;;;;;28.87;10.13;;;;;;;;;;6213738;22;20198;-89
2023/11/23 09:08:06;;;;;;;25.17;10.47;;;;;;;;;;6214864;22;20172;-89
2023/11/23 09:11:11;;;;;;;26.23;11.77;;;;;;;;;;6215050;23;20615;-90
2023/11/23 09:14:17;;;;;;;26.70;10.00;;;;;;;;;;6208806;23;20190;-88
2023/11/23 09:17:22;;;;;;;29.93;10.60;;;;;;;;;;6209982;23;20164;-90
2023/11/23 09:20:28;;;;;;;25.80;10.93;;;;;;;;;;6210812;23;20171;-89
2023/11/23 09:23:34;;;;;;;22.57;9.90;;;;;;;;;;6210668;22;20277;-90
2023/11/23 09:26:40;;;;;;;26.03;11.53;;;;;;;;;;6211266;23;20219;-92
2023/11/23 09:29:45;;;;;;;24.70;10.57;;;;;;;;;;6210736;23;20222;-89
2023/11/23 09:32:51;;;;;;;25.00;10.83;;;;;;;;;;6228428;22;20248;-89
2023/11/23 09:35:56;;;;;;;22.27;10.50;;;;;;;;;;6210926;22;20179;-90
2023/11/23 09:39:03;;;;;;;23.43;10.63;;;;;;;;;;6213128;22;20218;-91
2023/11/23 09:42:10;;;;;;;21.93;10.50;;;;;;;;;;6210715;23;20179;-89
2023/11/23 09:45:19;;;;;;;20.27;9.67;;;;;;;;;;6210045;23;20630;-91
2023/11/23 09:48:29;;;;;;;25.97;10.57;;;;;;;;;;6210234;22;20240;-86
2023/11/23 09:51:35;;;;;;;24.73;10.60;;;;;;;;;;6210402;22;20163;-89
2023/11/23 09:54:42;;;;;;;21.33;9.90;;;;;;;;;;6213593;22;20199;-89
2023/11/23 09:57:48;;;;;;;27.70;10.97;;;;;;;;;;6214070;23;20224;-88
2023/11/23 10:00:55;;;;;;;24.20;10.67;;;;;;;;;;6213220;22;20210;-88
2023/11/23 10:04:01;;;;;;;29.90;11.27;;;;;;;;;;6212057;22;20194;-87
2023/11/23 10:07:08;;;;;;;22.77;10.37;;;;;;;;;;6214910;22;20195;-88
2023/11/23 10:10:15;;;;;;;20.67;9.73;;;;;;;;;;6215404;23;20183;-90
2023/11/23 10:13:20;;;;;;;19.90;9.33;;;;;;;;;;6215886;23;20179;-91
2023/11/23 10:16:25;;;;;;;23.90;10.37;;;;;;;;;;6212842;23;20223;-88
2023/11/23 10:19:31;;;;;;;19.02;9.30;;;;;;;;;;6212851;23;20167;-89
2023/11/23 10:22:36;;;;;;;22.43;10.03;;;;;;;;;;6212147;23;20266;-90
2023/11/23 10:25:43;;;;;;;26.90;10.37;;;;;;;;;;6211271;23;20494;-90
2023/11/23 10:28:49;;;;;;;16.13;8.30;;;;;;;;;;6210844;23;20623;-92
2023/11/23 10:31:54;;;;;;;17.77;8.07;;;;;;;;;;6208310;23;20171;-86
2023/11/23 10:35:05;;;;;;;15.13;7.30;;;;;;;;;;6211150;23;20614;-91
2023/11/23 10:38:10;;;;;;;18.47;7.50;;;;;;;;;;6208221;22;20194;-89
2023/11/23 10:41:17;;;;;;;20.37;8.50;;;;;;;;;;6209594;23;20214;-89
2023/11/23 10:44:23;;;;;;;15.40;7.43;;;;;;;;;;6208668;23;20167;-90
2023/11/23 10:47:30;;;;;;;16.33;7.67;;;;;;;;;;6208915;22;20512;-91
2023/11/23 10:50:35;;;;;;;17.30;8.43;;;;;;;;;;6212994;22;20615;-89
2023/11/23 10:53:42;;;;;;;15.63;7.33;;;;;;;;;;6211301;23;20163;-90
2023/11/23 10:56:49;;;;;;;17.07;7.90;;;;;;;;;;6211549;23;20171;-89
2023/11/23 10:59:56;;;;;;;16.77;8.30;;;;;;;;;;6212019;23;20171;-88
2023/11/23 11:03:02;;;;;;;18.73;7.90;;;;;;;;;;6211841;22;20158;-88
2023/11/23 11:06:12;;;;;;;15.23;6.80;;;;;;;;;;6213233;22;20219;-88
2023/11/23 11:09:17;;;;;;;16.20;7.57;;;;;;;;;;6214776;23;20216;-92
2023/11/23 11:15:52;;;;;;;13.90;7.10;;;;;;;;;;6212521;23;20203;-90
2023/11/23 11:18:57;;;;;;;15.00;7.40;;;;;;;;;;6212804;23;20171;-88
2023/11/23 11:22:03;;;;;;;16.90;7.47;;;;;;;;;;6212723;22;20163;-90
2023/11/23 11:25:09;;;;;;;14.93;7.20;;;;;;;;;;6212796;22;20175;-89
2023/11/23 11:28:29;;;;;;;15.03;7.23;;;;;;;;;;6210591;22;20296;-86
2023/11/23 11:31:36;;;;;;;16.47;7.07;;;;;;;;;;6211167;22;20171;-90
2023/11/23 11:34:49;;;;;;;15.60;6.80;;;;;;;;;;6215593;23;20222;-90
2023/11/23 11:37:57;;;;;;;16.90;7.33;;;;;;;;;;6213321;23;20230;-86
2023/11/23 11:41:03;;;;;;;15.07;6.90;;;;;;;;;;6210278;22;20162;-89
2023/11/23 11:44:13;;;;;;;15.77;7.03;;;;;;;;;;6209985;23;20166;-91
2023/11/23 11:47:18;;;;;;;14.10;6.83;;;;;;;;;;6210065;23;20501;-87
2023/11/23 11:50:23;;;;;;;19.57;6.93;;;;;;;;;;6210888;22;20169;-89
2023/11/23 11:53:29;;;;;;;13.40;6.87;;;;;;;;;;6209241;23;20509;-91
2023/11/23 11:56:35;;;;;;;15.07;7.23;;;;;;;;;;6209509;22;20171;-88
2023/11/23 11:59:44;;;;;;;14.17;6.37;;;;;;;;;;6209484;22;20214;-91
2023/11/23 12:02:49;;;;;;;16.30;7.17;;;;;;;;;;6209591;22;20170;-88
2023/11/23 12:05:55;;;;;;;15.60;7.10;;;;;;;;;;6210445;22;20232;-90
2023/11/23 12:09:01;;;;;;;12.23;6.27;;;;;;;;;;6209460;23;20219;-91
2023/11/23 12:12:10;;;;;;;14.77;6.10;;;;;;;;;;6211428;22;20167;-90
2023/11/23 12:15:21;;;;;;;16.80;6.57;;;;;;;;;;6209089;23;20252;-90
2023/11/23 12:18:30;;;;;;;14.70;6.65;;;;;;;;;;6209245;23;20238;-89
2023/11/23 12:21:35;;;;;;;12.07;6.23;;;;;;;;;;6213595;23;20204;-91
2023/11/23 12:24:42;;;;;;;15.70;6.30;;;;;;;;;;6215254;22;20174;-88
2023/11/23 12:27:47;;;;;;;13.97;6.67;;;;;;;;;;6215521;22;20615;-90
2023/11/23 12:30:55;;;;;;;13.83;6.23;;;;;;;;;;6213403;23;20167;-87
2023/11/23 12:34:05;;;;;;;12.47;6.43;;;;;;;;;;6214149;22;20167;-88
2023/11/23 12:37:10;;;;;;;10.63;5.50;;;;;;;;;;6214571;23;20206;-90
2023/11/23 12:40:18;;;;;;;10.70;5.17;;;;;;;;;;6211018;22;20179;-89
2023/11/23 12:43:23;;;;;;;12.57;5.50;;;;;;;;;;6211046;23;20294;-90
2023/11/23 12:46:30;;;;;;;12.57;5.83;;;;;;;;;;6210477;23;20278;-90
2023/11/23 12:49:35;;;;;;;9.73;4.63;;;;;;;;;;6208666;22;20163;-89
2023/11/23 12:52:41;;;;;;;9.43;4.80;;;;;;;;;;6209847;22;20175;-91
2023/11/23 12:55:46;;;;;;;13.47;5.80;;;;;;;;;;6212719;22;20247;-92
2023/11/23 12:58:51;;;;;;;19.30;6.03;;;;;;;;;;6211781;22;20159;-90
2023/11/23 13:01:59;;;;;;;12.20;5.88;;;;;;;;;;6210052;22;20179;-92
2023/11/23 13:05:06;;;;;;;11.63;5.60;;;;;;;;;;6210292;23;20270;-91
2023/11/23 13:08:11;;;;;;;11.57;5.38;;;;;;;;;;6208995;23;20287;-89
2023/11/23 13:11:16;;;;;;;11.07;4.95;;;;;;;;;;6210644;23;20167;-92
2023/11/23 13:14:22;;;;;;;11.82;4.78;;;;;;;;;;6217441;23;20163;-92
2023/11/23 13:17:29;;;;;;;9.60;5.00;;;;;;;;;;6210859;23;20175;-92
2023/11/23 13:20:35;;;;;;;9.55;4.82;;;;;;;;;;6208802;22;20186;-88
2023/11/23 13:23:40;;;;;;;10.00;5.00;;;;;;;;;;6210190;22;20215;-88
2023/11/23 13:26:46;;;;;;;8.68;4.75;;;;;;;;;;6210608;23;20263;-88
2023/11/23 13:29:52;;;;;;;12.30;5.75;;;;;;;;;;6210156;22;20211;-92
2023/11/23 13:33:22;;;;;;;11.52;5.00;;;;;;;;;;6214539;22;20208;-89
2023/11/23 13:36:34;;;;;;;11.63;5.57;;;;;;;;;;6231505;23;20242;-90
2023/11/23 13:39:39;;;;;;;10.90;5.15;;;;;;;;;;6215044;23;20174;-92
2023/11/23 13:42:47;;;;;;;9.40;4.90;;;;;;;;;;6214058;23;20167;-90
2023/11/23 13:45:54;;;;;;;8.18;4.25;;;;;;;;;;6214340;22;20500;-91
2023/11/23 13:48:59;;;;;;;9.57;4.70;;;;;;;;;;6211929;22;20238;-91
2023/11/23 13:52:10;;;;;;;9.35;4.53;;;;;;;;;;6210232;22;20164;-91
2023/11/23 13:55:15;;;;;;;8.07;3.90;;;;;;;;;;6211645;23;20297;-89
2023/11/23 13:58:20;;;;;;;8.50;4.18;;;;;;;;;;6212905;23;20171;-88
2023/11/23 14:01:28;;;;;;;8.57;4.55;;;;;;;;;;6213515;23;20214;-89
2023/11/23 14:04:33;;;;;;;8.45;4.45;;;;;;;;;;6213800;22;20215;-90
2023/11/23 14:07:40;;;;;;;9.82;4.40;;;;;;;;;;6214717;22;20167;-90
2023/11/23 14:10:45;;;;;;;9.07;4.43;;;;;;;;;;6212765;23;20178;-89
2023/11/23 14:13:54;;;;;;;10.93;4.97;;;;;;;;;;6212791;23;20166;-88
2023/11/23 14:17:00;;;;;;;8.43;4.35;;;;;;;;;;6211097;22;20211;-90
2023/11/23 14:20:06;;;;;;;11.85;5.30;;;;;;;;;;6214417;22;20171;-92
2023/11/23 14:23:14;;;;;;;9.43;4.50;;;;;;;;;;6212904;22;20499;-88
2023/11/23 14:26:20;;;;;;;11.80;4.80;;;;;;;;;;6215047;23;20234;-88
2023/11/23 14:29:26;;;;;;;11.30;4.72;;;;;;;;;;6212566;23;20171;-92
2023/11/23 14:32:32;;;;;;;13.55;5.07;;;;;;;;;;6212003;22;20222;-89
2023/11/23 14:35:37;;;;;;;9.65;4.80;;;;;;;;;;6213886;22;20199;-88
2023/11/23 14:38:46;;;;;;;8.27;4.10;;;;;;;;;;6212851;23;20199;-88
2023/11/23 14:41:52;;;;;;;11.57;4.90;;;;;;;;;;6212219;23;20524;-92
2023/11/23 14:44:58;;;;;;;7.63;3.92;;;;;;;;;;6197151;23;20171;-90
2023/11/23 14:48:04;;;;;;;8.52;3.80;;;;;;;;;;6212783;23;20169;-92
2023/11/23 14:51:09;;;;;;;8.40;3.70;;;;;;;;;;6212869;22;20175;-88
2023/11/23 14:54:16;;;;;;;7.20;3.88;;;;;;;;;;6215298;23;20167;-92
2023/11/23 14:57:22;;;;;;;10.02;4.13;;;;;;;;;;6213072;23;20239;-90
2023/11/23 15:00:31;;;;;;;13.40;4.20;;;;;;;;;;6211288;23;20175;-89
2023/11/23 15:06:57;;;;;;;8.32;4.40;;;;;;;;;;6212887;23;20171;-92
2023/11/23 15:10:11;;;;;;;13.60;4.63;;;;;;;;;;6214085;23;20167;-89
2023/11/23 15:13:17;;;;;;;7.82;3.97;;;;;;;;;;6212091;23;20309;-92
2023/11/23 15:16:24;;;;;;;8.48;4.22;;;;;;;;;;6212318;22;20178;-89
2023/11/23 15:19:34;;;;;;;10.80;5.00;;;;;;;;;;6213713;22;20162;-89
2023/11/23 15:22:42;;;;;;;6.93;3.80;;;;;;;;;;6213547;23;20170;-90
2023/11/23 15:25:50;;;;;;;9.80;4.40;;;;;;;;;;6213001;23;20175;-90
2023/11/23 15:28:59;;;;;;;9.48;4.43;;;;;;;;;;6212878;23;20221;-90
2023/11/23 15:32:06;;;;;;;9.52;3.95;;;;;;;;;;6214666;22;20191;-91
2023/11/23 15:35:12;;;;;;;8.93;4.03;;;;;;;;;;6216456;22;20162;-89
2023/11/23 15:38:19;;;;;;;10.15;4.45;;;;;;;;;;6216502;23;20250;-90
2023/11/23 15:41:26;;;;;;;9.82;4.32;;;;;;;;;;6214792;23;20216;-90
2023/11/23 15:44:31;;;;;;;8.15;3.97;;;;;;;;;;6214252;23;20183;-92
2023/11/23 15:47:38;;;;;;;10.48;4.07;;;;;;;;;;6214522;22;20178;-89
2023/11/23 15:50:44;;;;;;;14.05;6.10;;;;;;;;;;6214957;22;20301;-92
2023/11/23 15:53:52;;;;;;;9.93;4.53;;;;;;;;;;6215305;23;20225;-91
2023/11/23 15:56:59;;;;;;;12.18;4.60;;;;;;;;;;6213840;22;20190;-90
2023/11/23 16:00:06;;;;;;;15.30;6.32;;;;;;;;;;6213954;22;20162;-90
2023/11/23 16:03:12;;;;;;;12.07;5.97;;;;;;;;;;6213530;22;20202;-90
2023/11/23 16:06:19;;;;;;;18.80;6.53;;;;;;;;;;6214585;22;20279;-90
2023/11/23 16:09:27;;;;;;;70.30;18.53;;;;;;;;;;6214462;23;20214;-91
2023/11/23 16:12:34;;;;;;;68.77;18.27;;;;;;;;;;6213668;23;20159;-92
2023/11/23 16:15:39;;;;;;;32.92;9.93;;;;;;;;;;6210997;22;20191;-89
2023/11/23 16:18:45;;;;;;;39.13;12.80;;;;;;;;;;6212365;23;20171;-91
2023/11/23 16:21:51;;;;;;;21.50;6.43;;;;;;;;;;6214712;22;20670;-90
2023/11/23 16:24:56;;;;;;;15.00;5.97;;;;;;;;;;6213831;23;20210;-91
2023/11/23 16:28:04;;;;;;;17.92;6.95;;;;;;;;;;6217071;23;20359;-89
2023/11/23 16:31:11;;;;;;;77.75;23.38;;;;;;;;;;6216398;22;20168;-89
2023/11/23 16:34:19;;;;;;;63.83;18.27;;;;;;;;;;6218367;22;20158;-92
2023/11/23 16:37:33;;;;;;;21.92;8.27;;;;;;;;;;6216877;22;20215;-89
2023/11/23 16:44:06;;;;;;;11.77;5.50;;;;;;;;;;6215978;23;20166;-88
2023/11/23 16:47:13;;;;;;;35.45;10.38;;;;;;;;;;6195185;23;20174;-88
2023/11/23 16:50:19;;;;;;;15.60;6.70;;;;;;;;;;6217361;23;20171;-92
2023/11/23 16:53:26;;;;;;;14.65;5.70;;;;;;;;;;6215624;23;20163;-90
2023/11/23 16:56:31;;;;;;;17.10;4.78;;;;;;;;;;6214417;22;20238;-91
2023/11/23 16:59:39;;;;;;;12.57;4.15;;;;;;;;;;6213643;23;20174;-87
2023/11/23 17:02:45;;;;;;;13.15;5.35;;;;;;;;;;6212734;22;20171;-85
2023/11/23 17:05:53;;;;;;;14.93;5.13;;;;;;;;;;6215753;22;20240;-89
2023/11/23 17:09:01;;;;;;;14.73;5.43;;;;;;;;;;6212535;23;20162;-90
2023/11/23 17:12:06;;;;;;;14.27;5.40;;;;;;;;;;6212237;23;20603;-89
2023/11/23 17:15:13;;;;;;;9.85;4.22;;;;;;;;;;6213596;23;20211;-89
2023/11/23 17:18:26;;;;;;;9.38;4.47;;;;;;;;;;6215897;22;20179;-88
2023/11/23 17:21:32;;;;;;;11.98;4.50;;;;;;;;;;6215721;23;20235;-88
2023/11/23 17:24:39;;;;;;;12.73;4.53;;;;;;;;;;6217729;23;20183;-90
2023/11/23 20:24:26;;;;;;;10.88;5.10;;;;;;;;;;6198956;23;20252;-90
2023/11/23 20:27:43;;;;;;;9.83;4.70;;;;;;;;;;6161900;23;20287;-87
2023/11/23 20:30:49;;;;;;;9.87;4.83;;;;;;;;;;6178116;23;20219;-90
2023/11/23 20:33:56;;;;;;;9.63;4.65;;;;;;;;;;6185315;23;20167;-87
2023/11/23 20:37:01;;;;;;;8.73;4.50;;;;;;;;;;6183912;22;20203;-90
2023/11/23 20:40:10;;;;;;;9.30;4.80;;;;;;;;;;6185052;23;20175;-89
2023/11/23 20:43:15;;;;;;;9.23;4.73;;;;;;;;;;6183754;23;20310;-89
2023/11/23 20:46:20;;;;;;;10.03;4.70;;;;;;;;;;6183060;23;20191;-89
2023/11/23 20:49:27;;;;;;;10.15;4.70;;;;;;;;;;6187074;23;20164;-87
2023/11/23 20:52:32;;;;;;;9.50;4.57;;;;;;;;;;6186749;22;20221;-88
2023/11/23 20:55:40;;;;;;;11.38;4.68;;;;;;;;;;6188125;22;20172;-88
2023/11/23 20:58:48;;;;;;;9.05;4.53;;;;;;;;;;6186855;23;20211;-90
2023/11/23 21:01:54;;;;;;;24.13;8.40;;;;;;;;;;6187188;22;20192;-90
2023/11/23 21:05:01;;;;;;;14.07;6.05;;;;;;;;;;6188425;23;20175;-86
2023/11/23 21:08:06;;;;;;;20.88;7.78;;;;;;;;;;6188547;22;20176;-92
2023/11/23 21:11:15;;;;;;;10.65;5.50;;;;;;;;;;6186585;22;20211;-88
2023/11/23 21:14:22;;;;;;;9.87;5.13;;;;;;;;;;6185558;23;20167;-91
2023/11/23 21:17:27;;;;;;;9.53;5.17;;;;;;;;;;6184547;23;20195;-90
2023/11/23 21:20:35;;;;;;;11.33;5.63;;;;;;;;;;6184099;23;20160;-88
2023/11/23 21:23:41;;;;;;;11.73;5.87;;;;;;;;;;6188551;22;20156;-89
2023/11/23 21:26:48;;;;;;;12.40;5.37;;;;;;;;;;6185277;22;20178;-86